createdAt,value
2019-03-29T00:01:50.316Z,15.93
2019-03-29T00:04:17.345Z,15.77
2019-03-29T00:06:44.846Z,15.05
2019-03-29T00:09:12.413Z,14.67
2019-03-29T00:11:39.887Z,14.80
2019-03-29T00:14:07.366Z,14.63
2019-03-29T00:16:34.819Z,14.40
2019-03-29T00:19:02.324Z,15.93
2019-03-29T00:21:29.710Z,15.53
2019-03-29T00:24:06.659Z,16.10
2019-03-29T00:26:25.548Z,15.47
2019-03-29T00:28:52.137Z,16.20
2019-03-29T00:31:19.582Z,16.27
2019-03-29T00:33:47.056Z,16.77
2019-03-29T00:36:15.465Z,14.53
2019-03-29T00:38:43.085Z,14.67
2019-03-29T00:41:10.549Z,15.77
2019-03-29T00:43:37.982Z,14.50
2019-03-29T00:46:05.440Z,16.37
2019-03-29T00:48:35.450Z,15.67
2019-03-29T00:51:00.387Z,15.90
2019-03-29T00:53:28.005Z,16.50
2019-03-29T00:55:55.460Z,16.20
2019-03-29T00:58:22.981Z,15.73
2019-03-29T01:00:50.404Z,16.73
2019-03-29T01:03:17.886Z,14.65
2019-03-29T01:05:46.257Z,15.10
2019-03-29T01:08:12.841Z,14.87
2019-03-29T01:10:40.289Z,15.10
2019-03-29T01:13:08.625Z,15.13
2019-03-29T01:15:36.173Z,13.20
2019-03-29T01:18:03.551Z,14.00
2019-03-29T01:20:30.990Z,14.00
2019-03-29T01:22:58.441Z,14.17
2019-03-29T01:25:25.887Z,12.70
2019-03-29T01:27:53.962Z,12.67
2019-03-29T01:30:21.397Z,13.98
2019-03-29T01:32:48.852Z,14.77
2019-03-29T01:35:16.297Z,14.90
2019-03-29T01:37:43.740Z,13.70
2019-03-29T01:40:11.189Z,15.57
2019-03-29T01:42:39.096Z,14.85
2019-03-29T01:45:06.595Z,14.40
2019-03-29T01:47:34.036Z,14.50
2019-03-29T01:50:01.511Z,13.03
2019-03-29T01:52:31.516Z,14.43
2019-03-29T01:54:57.120Z,13.43
2019-03-29T01:57:23.949Z,13.60
2019-03-29T01:59:51.422Z,13.55
2019-03-29T02:02:18.868Z,13.40
2019-03-29T02:04:46.334Z,14.37
2019-03-29T02:07:13.807Z,15.80
2019-03-29T02:09:41.249Z,15.33
2019-03-29T02:12:09.620Z,12.93
2019-03-29T02:14:37.063Z,13.87
2019-03-29T02:17:04.509Z,14.00
2019-03-29T02:19:32.721Z,14.40
2019-03-29T02:22:00.299Z,15.20
2019-03-29T02:24:27.822Z,14.52
2019-03-29T02:26:55.270Z,15.32
2019-03-29T02:29:22.744Z,15.73
2019-03-29T02:31:50.192Z,15.88
2019-03-29T02:34:17.755Z,15.20
2019-03-29T02:36:45.231Z,15.50
2019-03-29T02:39:12.689Z,14.80
2019-03-29T02:41:40.146Z,13.77
2019-03-29T02:44:07.958Z,13.97
2019-03-29T02:46:36.268Z,13.43
2019-03-29T02:49:03.849Z,12.90
2019-03-29T02:51:32.617Z,13.23
2019-03-29T02:53:58.879Z,12.63
2019-03-29T02:56:26.332Z,11.23
2019-03-29T02:58:53.782Z,12.07
2019-03-29T03:01:21.230Z,12.00
2019-03-29T03:03:48.674Z,11.80
2019-03-29T03:06:16.146Z,11.83
2019-03-29T03:08:43.733Z,10.87
2019-03-29T03:11:11.181Z,10.60
2019-03-29T03:13:38.666Z,10.80
2019-03-29T03:16:06.112Z,11.37
2019-03-29T03:18:33.568Z,11.10
2019-03-29T03:21:01.016Z,9.47
2019-03-29T03:23:28.494Z,10.15
2019-03-29T03:25:56.023Z,9.73
2019-03-29T03:28:23.401Z,9.57
2019-03-29T03:30:50.822Z,9.97
2019-03-29T03:33:18.310Z,9.50
2019-03-29T03:35:45.893Z,9.73
2019-03-29T03:38:13.335Z,8.73
2019-03-29T03:40:41.271Z,9.38
2019-03-29T03:43:08.746Z,9.20
2019-03-29T03:45:36.181Z,9.23
2019-03-29T03:48:03.641Z,8.70
2019-03-29T03:50:31.923Z,9.73
2019-03-29T03:52:59.446Z,9.57
2019-03-29T03:55:26.997Z,8.77
2019-03-29T03:57:57.659Z,9.07
2019-03-29T04:00:21.896Z,8.40
2019-03-29T04:02:49.329Z,8.68
2019-03-29T04:05:16.797Z,8.63
2019-03-29T04:07:44.238Z,8.30
2019-03-29T04:10:11.919Z,8.27
2019-03-29T04:12:39.370Z,7.33
2019-03-29T04:15:06.859Z,8.60
2019-03-29T04:17:34.302Z,8.57
2019-03-29T04:20:01.799Z,8.27
2019-03-29T04:22:29.255Z,9.10
2019-03-29T04:24:56.689Z,8.33
2019-03-29T04:27:24.149Z,8.87
2019-03-29T04:29:51.607Z,8.25
2019-03-29T04:32:19.025Z,8.20
2019-03-29T04:34:46.471Z,8.70
2019-03-29T04:37:13.885Z,7.80
2019-03-29T04:39:42.395Z,8.27
2019-03-29T04:42:09.845Z,8.27
2019-03-29T04:44:37.301Z,8.63
2019-03-29T04:47:04.739Z,8.27
2019-03-29T04:49:32.241Z,7.87
2019-03-29T04:51:59.651Z,8.20
2019-03-29T04:54:27.097Z,7.93
2019-03-29T04:56:54.530Z,7.87
2019-03-29T04:59:21.990Z,8.43
2019-03-29T05:01:49.482Z,7.73
2019-03-29T05:04:18.469Z,8.23
2019-03-29T05:06:46.243Z,8.17
2019-03-29T05:09:13.715Z,7.93
2019-03-29T05:11:41.123Z,8.00
2019-03-29T05:14:08.619Z,8.00
2019-03-29T05:16:36.744Z,7.53
2019-03-29T05:19:04.179Z,7.60
2019-03-29T05:21:31.613Z,8.27
2019-03-29T05:23:59.058Z,8.15
2019-03-29T05:26:26.520Z,7.57
2019-03-29T05:28:53.998Z,8.23
2019-03-29T05:31:21.447Z,8.02
2019-03-29T05:33:48.898Z,7.80
2019-03-29T05:36:16.381Z,8.00
2019-03-29T05:38:43.890Z,8.33
2019-03-29T05:41:11.330Z,7.77
2019-03-29T05:43:38.773Z,8.10
2019-03-29T05:46:06.270Z,7.77
2019-03-29T05:48:33.709Z,8.83
2019-03-29T05:51:01.161Z,7.85
2019-03-29T05:53:28.633Z,8.30
2019-03-29T05:55:56.127Z,8.03
2019-03-29T05:58:23.869Z,7.70
2019-03-29T06:00:51.321Z,8.00
2019-03-29T06:03:19.356Z,8.17
2019-03-29T06:05:46.851Z,7.93
2019-03-29T06:08:14.664Z,7.90
2019-03-29T06:10:48.746Z,7.60
2019-03-29T06:13:09.564Z,7.50
2019-03-29T06:15:37.124Z,8.07
2019-03-29T06:18:04.712Z,7.20
2019-03-29T06:20:32.197Z,7.90
2019-03-29T06:22:59.654Z,7.27
2019-03-29T06:25:27.082Z,7.28
2019-03-29T06:27:54.610Z,7.37
2019-03-29T06:30:31.133Z,6.68
2019-03-29T06:32:58.615Z,6.57
2019-03-29T06:35:26.088Z,6.73
2019-03-29T06:37:53.513Z,6.87
2019-03-29T06:40:23.456Z,6.90
2019-03-29T06:42:50.893Z,6.87
2019-03-29T06:45:18.516Z,6.80
2019-03-29T06:47:46.918Z,6.97
2019-03-29T06:50:14.776Z,7.07
2019-03-29T06:52:42.238Z,7.50
2019-03-29T06:55:09.726Z,7.43
2019-03-29T06:57:37.184Z,6.80
2019-03-29T07:00:05.621Z,7.23
2019-03-29T07:02:33.054Z,7.13
2019-03-29T07:05:00.540Z,6.60
2019-03-29T07:07:28.005Z,6.63
2019-03-29T07:09:55.445Z,6.60
2019-03-29T07:12:22.963Z,6.77
2019-03-29T07:14:50.434Z,6.47
2019-03-29T07:17:18.317Z,6.13
2019-03-29T07:19:45.765Z,6.60
2019-03-29T07:22:13.267Z,6.57
2019-03-29T07:24:40.691Z,6.67
2019-03-29T07:27:08.154Z,6.43
2019-03-29T07:29:35.571Z,6.53
2019-03-29T07:32:03.037Z,6.00
2019-03-29T07:34:33.097Z,6.57
2019-03-29T07:37:00.683Z,5.60
2019-03-29T07:39:28.131Z,4.97
2019-03-29T07:41:55.576Z,5.43
2019-03-29T07:44:23.001Z,5.50
2019-03-29T07:46:50.654Z,5.03
2019-03-29T07:49:18.097Z,5.97
2019-03-29T07:51:45.870Z,5.47
2019-03-29T07:54:13.341Z,5.10
2019-03-29T07:56:40.817Z,5.00
2019-03-29T07:59:08.290Z,5.23
2019-03-29T08:01:38.750Z,5.33
2019-03-29T08:04:06.231Z,5.10
2019-03-29T08:06:33.672Z,5.00
2019-03-29T08:09:01.322Z,4.90
2019-03-29T08:11:28.679Z,4.30
2019-03-29T08:13:56.076Z,4.87
2019-03-29T08:16:23.521Z,4.87
2019-03-29T08:18:51.046Z,4.95
2019-03-29T08:21:18.540Z,4.60
2019-03-29T08:23:46.871Z,4.93
2019-03-29T08:26:14.363Z,5.73
2019-03-29T08:28:41.814Z,4.70
2019-03-29T08:31:09.267Z,4.80
2019-03-29T08:33:36.715Z,5.40
2019-03-29T08:36:04.170Z,5.10
2019-03-29T08:38:31.641Z,5.68
2019-03-29T08:40:59.168Z,5.80
2019-03-29T08:43:26.568Z,6.07
2019-03-29T08:45:57.340Z,5.83
2019-03-29T08:48:21.508Z,6.30
2019-03-29T08:50:48.966Z,6.63
2019-03-29T08:53:16.957Z,5.35
2019-03-29T08:55:45.885Z,6.40
2019-03-29T08:58:11.907Z,5.27
2019-03-29T09:00:39.379Z,5.63
2019-03-29T09:03:06.798Z,5.80
2019-03-29T09:05:34.282Z,5.30
2019-03-29T09:08:01.723Z,5.40
2019-03-29T09:10:29.163Z,5.65
2019-03-29T09:12:57.181Z,5.10
2019-03-29T09:15:24.649Z,5.20
2019-03-29T09:17:52.116Z,4.97
2019-03-29T09:20:19.601Z,5.63
2019-03-29T09:22:47.705Z,4.95
2019-03-29T09:25:16.166Z,4.60
2019-03-29T09:27:43.708Z,3.63
2019-03-29T09:30:11.135Z,4.60
2019-03-29T09:32:38.593Z,4.95
2019-03-29T09:35:06.039Z,5.10
2019-03-29T09:37:33.508Z,5.85
2019-03-29T09:40:00.961Z,4.50
2019-03-29T09:42:30.019Z,4.60
2019-03-29T09:44:55.898Z,4.50
2019-03-29T09:47:23.350Z,4.93
2019-03-29T09:49:50.821Z,4.70
2019-03-29T09:52:18.282Z,4.30
2019-03-29T09:54:45.754Z,4.17
2019-03-29T09:57:15.584Z,4.50
2019-03-29T09:59:40.702Z,4.90
2019-03-29T10:02:08.145Z,4.50
2019-03-29T10:04:35.631Z,4.95
2019-03-29T10:07:03.066Z,4.78
2019-03-29T10:09:30.519Z,4.03
2019-03-29T10:11:57.978Z,3.90
2019-03-29T10:14:25.422Z,4.05
2019-03-29T10:16:52.887Z,4.00
2019-03-29T10:19:21.261Z,4.20
2019-03-29T10:21:48.974Z,3.87
2019-03-29T10:24:16.882Z,3.90
2019-03-29T10:26:44.389Z,3.97
2019-03-29T10:29:11.935Z,3.70
2019-03-29T10:31:39.374Z,4.50
2019-03-29T10:34:06.806Z,3.43
2019-03-29T10:36:34.270Z,3.40
2019-03-29T10:39:01.727Z,3.40
2019-03-29T10:41:29.161Z,3.93
2019-03-29T10:43:56.621Z,4.27
2019-03-29T10:46:24.070Z,3.57
2019-03-29T10:48:51.573Z,3.53
2019-03-29T10:51:19.180Z,3.60
2019-03-29T10:53:46.655Z,3.70
2019-03-29T10:56:14.139Z,4.20
2019-03-29T10:58:44.732Z,4.43
2019-03-29T11:01:09.087Z,3.92
2019-03-29T11:03:36.515Z,4.20
2019-03-29T11:06:03.974Z,4.43
2019-03-29T11:08:32.465Z,4.05
2019-03-29T11:11:00.158Z,3.53
2019-03-29T11:13:27.603Z,3.95
2019-03-29T11:15:55.054Z,4.13
2019-03-29T11:18:22.517Z,4.10
2019-03-29T11:20:50.023Z,4.20
2019-03-29T11:23:17.482Z,4.23
2019-03-29T11:25:48.280Z,4.43
2019-03-29T11:28:12.447Z,4.17
2019-03-29T11:30:42.543Z,4.90
2019-03-29T11:33:07.330Z,4.37
2019-03-29T11:35:34.775Z,4.40
2019-03-29T11:38:02.263Z,4.13
2019-03-29T11:40:29.750Z,4.27
2019-03-29T11:42:57.538Z,4.00
2019-03-29T11:45:24.992Z,4.23
2019-03-29T11:48:06.892Z,4.27
2019-03-29T11:50:20.352Z,4.28
2019-03-29T11:52:47.782Z,4.57
2019-03-29T11:55:15.596Z,3.87
2019-03-29T11:57:43.078Z,4.30
2019-03-29T12:00:10.542Z,4.40
2019-03-29T12:02:38.018Z,4.70
2019-03-29T12:05:05.567Z,4.45
2019-03-29T12:07:34.626Z,4.12
2019-03-29T12:10:02.189Z,4.47
2019-03-29T12:12:29.662Z,3.90
2019-03-29T12:14:57.118Z,3.10
2019-03-29T12:17:24.671Z,4.10
2019-03-29T12:19:52.116Z,4.47
2019-03-29T12:22:19.544Z,3.43
2019-03-29T12:24:47.016Z,4.27
2019-03-29T12:27:14.463Z,3.80
2019-03-29T12:29:41.926Z,3.77
2019-03-29T12:32:09.375Z,4.07
2019-03-29T12:34:36.818Z,3.40
2019-03-29T12:37:04.256Z,3.60
2019-03-29T12:39:31.691Z,3.70
2019-03-29T12:41:59.863Z,4.15
2019-03-29T12:44:27.315Z,4.17
2019-03-29T12:46:54.765Z,4.10
2019-03-29T12:49:22.262Z,4.30
2019-03-29T12:51:49.724Z,3.87
2019-03-29T12:54:17.196Z,3.70
2019-03-29T12:56:44.673Z,3.60
2019-03-29T12:59:12.125Z,3.30
2019-03-29T13:01:40.422Z,3.60
2019-03-29T13:04:09.737Z,3.90
2019-03-29T13:06:34.566Z,3.62
2019-03-29T13:09:02.016Z,3.60
2019-03-29T13:11:29.493Z,3.50
2019-03-29T13:14:09.577Z,3.70
2019-03-29T13:16:27.547Z,3.77
2019-03-29T13:18:53.842Z,3.70
2019-03-29T13:21:20.223Z,4.10
2019-03-29T13:23:47.647Z,4.03
2019-03-29T13:26:15.088Z,3.50
2019-03-29T13:28:42.515Z,3.77
2019-03-29T13:31:09.977Z,4.25
2019-03-29T13:33:37.418Z,3.83
2019-03-29T13:36:04.862Z,3.22
2019-03-29T13:38:32.326Z,3.83
2019-03-29T13:40:59.829Z,3.40
2019-03-29T13:43:27.274Z,3.40
2019-03-29T13:45:54.763Z,3.23
2019-03-29T13:48:22.494Z,3.50
2019-03-29T13:50:49.982Z,3.37
2019-03-29T13:53:17.460Z,3.65
2019-03-29T13:55:44.903Z,3.20
2019-03-29T13:58:12.379Z,3.17
2019-03-29T14:00:39.794Z,3.20
2019-03-29T14:03:07.262Z,2.97
2019-03-29T14:05:34.681Z,3.45
2019-03-29T14:08:02.135Z,2.80
2019-03-29T14:10:29.620Z,2.72
2019-03-29T14:12:57.070Z,3.17
2019-03-29T14:15:24.550Z,2.97
2019-03-29T14:17:52.945Z,3.57
2019-03-29T14:20:29.977Z,2.90
2019-03-29T14:22:57.461Z,3.10
2019-03-29T14:25:24.916Z,2.57
2019-03-29T14:27:53.172Z,2.90
2019-03-29T14:30:20.639Z,3.20
2019-03-29T14:32:48.104Z,3.60
2019-03-29T14:35:15.548Z,2.73
2019-03-29T14:37:43.051Z,3.37
2019-03-29T14:40:10.537Z,3.12
2019-03-29T14:42:37.982Z,3.10
2019-03-29T14:45:06.200Z,3.07
2019-03-29T14:47:41.262Z,2.43
2019-03-29T14:50:02.281Z,3.03
2019-03-29T14:52:29.757Z,3.00
2019-03-29T14:54:57.189Z,3.07
2019-03-29T14:57:24.639Z,2.93
2019-03-29T14:59:52.076Z,2.67
2019-03-29T15:02:22.107Z,2.50
2019-03-29T15:04:47.061Z,3.10
2019-03-29T15:07:14.484Z,2.83
2019-03-29T15:09:41.927Z,2.90
2019-03-29T15:12:09.348Z,3.10
2019-03-29T15:14:36.815Z,2.80
2019-03-29T15:17:04.263Z,3.30
2019-03-29T15:19:31.700Z,3.17
2019-03-29T15:21:59.195Z,2.97
2019-03-29T15:24:26.679Z,2.87
2019-03-29T15:26:54.391Z,2.30
2019-03-29T15:29:21.894Z,2.77
2019-03-29T15:31:49.350Z,2.70
2019-03-29T15:34:16.902Z,2.60
2019-03-29T15:36:44.340Z,2.97
2019-03-29T15:39:11.816Z,2.40
2019-03-29T15:41:39.279Z,3.20
2019-03-29T15:44:06.734Z,3.13
2019-03-29T15:46:34.174Z,3.00
2019-03-29T15:49:01.676Z,3.07
2019-03-29T15:51:29.118Z,2.80
2019-03-29T15:53:56.543Z,3.00
2019-03-29T15:56:24.937Z,2.92
2019-03-29T15:58:52.387Z,2.93
2019-03-29T16:01:19.811Z,3.00
2019-03-29T16:03:47.287Z,2.90
2019-03-29T16:06:14.719Z,2.80
2019-03-29T16:08:43.537Z,2.80
2019-03-29T16:11:17.037Z,3.10
2019-03-29T16:13:38.446Z,2.55
2019-03-29T16:16:05.904Z,2.80
2019-03-29T16:18:33.361Z,2.90
2019-03-29T16:21:00.860Z,2.83
2019-03-29T16:23:28.287Z,2.80
2019-03-29T16:25:55.730Z,2.73
2019-03-29T16:28:23.162Z,2.90
2019-03-29T16:30:50.633Z,2.60
2019-03-29T16:33:18.144Z,2.90
2019-03-29T16:35:45.596Z,3.10
2019-03-29T16:38:13.042Z,3.00
2019-03-29T16:40:40.483Z,3.12
2019-03-29T16:43:07.931Z,3.40
2019-03-29T16:45:47.292Z,3.20
2019-03-29T16:48:02.886Z,2.80
2019-03-29T16:50:30.321Z,2.67
2019-03-29T16:52:57.834Z,3.00
2019-03-29T16:55:25.269Z,3.00
2019-03-29T16:57:52.744Z,2.53
2019-03-29T17:00:20.249Z,2.60
2019-03-29T17:02:47.711Z,2.70
2019-03-29T17:05:15.164Z,2.87
2019-03-29T17:07:42.614Z,2.90
2019-03-29T17:10:10.102Z,2.97
2019-03-29T17:12:37.525Z,2.70
2019-03-29T17:15:04.994Z,3.03
2019-03-29T17:17:32.448Z,2.77
2019-03-29T17:19:59.902Z,3.93
2019-03-29T17:22:27.474Z,3.73
2019-03-29T17:24:57.175Z,4.30
2019-03-29T17:27:22.424Z,3.55
2019-03-29T17:29:49.871Z,4.07
2019-03-29T17:32:17.319Z,3.83
2019-03-29T17:34:44.772Z,4.27
2019-03-29T17:37:12.258Z,5.03
2019-03-29T17:39:39.726Z,5.43
2019-03-29T17:42:07.201Z,5.50
2019-03-29T17:44:34.659Z,5.80
2019-03-29T17:47:02.152Z,6.35
2019-03-29T17:49:29.665Z,5.37
2019-03-29T17:51:58.159Z,5.97
2019-03-29T17:54:26.481Z,6.70
2019-03-29T17:56:53.985Z,6.27
2019-03-29T17:59:21.412Z,6.47
2019-03-29T18:01:48.889Z,7.07
2019-03-29T18:04:16.333Z,6.83
2019-03-29T18:06:46.884Z,7.10
2019-03-29T18:09:11.231Z,7.35
2019-03-29T18:11:38.689Z,7.73
2019-03-29T18:14:06.250Z,7.65
2019-03-29T18:16:33.688Z,7.70
2019-03-29T18:19:01.141Z,7.80
2019-03-29T18:21:28.665Z,8.50
2019-03-29T18:23:56.123Z,8.20
2019-03-29T18:26:23.569Z,8.07
2019-03-29T18:28:51.015Z,8.27
2019-03-29T18:31:18.442Z,8.00
2019-03-29T18:33:45.910Z,8.07
2019-03-29T18:36:13.348Z,8.30
2019-03-29T18:38:40.833Z,8.63
2019-03-29T18:41:09.118Z,8.80
2019-03-29T18:43:36.673Z,8.83
2019-03-29T18:46:04.118Z,8.90
2019-03-29T18:48:31.575Z,8.60
2019-03-29T18:50:59.239Z,8.20
2019-03-29T18:53:26.678Z,9.07
2019-03-29T18:55:54.169Z,8.30
2019-03-29T18:58:21.610Z,9.07
2019-03-29T19:00:49.095Z,9.43
2019-03-29T19:03:16.528Z,9.60
2019-03-29T19:05:43.979Z,9.27
2019-03-29T19:08:11.433Z,9.60
2019-03-29T19:10:38.887Z,9.25
2019-03-29T19:13:06.358Z,9.25
2019-03-29T19:15:34.760Z,9.67
2019-03-29T19:18:02.361Z,9.70
2019-03-29T19:20:29.825Z,9.67
2019-03-29T19:22:57.337Z,9.43
2019-03-29T19:25:24.820Z,9.47
2019-03-29T19:27:52.745Z,9.67
2019-03-29T19:30:20.269Z,9.60
2019-03-29T19:32:48.166Z,10.20
2019-03-29T19:35:15.250Z,10.40
2019-03-29T19:37:42.731Z,10.25
2019-03-29T19:40:10.188Z,10.23
2019-03-29T19:42:37.649Z,10.30
2019-03-29T19:45:05.701Z,9.98
2019-03-29T19:47:33.135Z,10.70
2019-03-29T19:50:01.587Z,9.93
2019-03-29T19:52:29.125Z,10.50
2019-03-29T19:54:56.588Z,10.20
2019-03-29T19:57:24.049Z,10.80
2019-03-29T19:59:51.644Z,10.13
2019-03-29T20:02:19.959Z,10.53
2019-03-29T20:04:47.486Z,10.63
2019-03-29T20:07:14.953Z,11.37
2019-03-29T20:09:42.430Z,10.60
2019-03-29T20:12:09.918Z,10.88
2019-03-29T20:14:37.357Z,11.00
2019-03-29T20:17:04.819Z,11.20
2019-03-29T20:19:32.423Z,10.73
2019-03-29T20:21:59.997Z,11.00
2019-03-29T20:24:27.535Z,11.00
2019-03-29T20:26:55.017Z,10.70
2019-03-29T20:29:22.484Z,10.50
2019-03-29T20:31:50.681Z,11.83
2019-03-29T20:34:17.433Z,10.88
2019-03-29T20:36:45.938Z,10.77
2019-03-29T20:39:13.496Z,10.87
2019-03-29T20:41:40.964Z,11.00
2019-03-29T20:44:08.430Z,9.80
2019-03-29T20:46:35.855Z,8.05
2019-03-29T20:49:03.331Z,8.60
2019-03-29T20:51:31.509Z,8.32
2019-03-29T20:53:58.932Z,9.23
2019-03-29T20:56:28.773Z,9.73
2019-03-29T20:58:53.882Z,10.13
2019-03-29T21:01:21.329Z,9.87
2019-03-29T21:03:48.791Z,9.82
2019-03-29T21:06:16.253Z,9.13
2019-03-29T21:08:43.697Z,8.52
2019-03-29T21:11:11.173Z,7.90
2019-03-29T21:13:38.775Z,7.80
2019-03-29T21:16:06.075Z,7.60
2019-03-29T21:18:33.541Z,8.20
2019-03-29T21:21:01.971Z,8.65
2019-03-29T21:23:29.426Z,8.60
2019-03-29T21:25:56.890Z,9.00
2019-03-29T21:28:24.318Z,7.77
2019-03-29T21:30:51.778Z,7.83
2019-03-29T21:33:19.420Z,7.27
2019-03-29T21:35:46.897Z,6.78
2019-03-29T21:38:15.695Z,6.53
2019-03-29T21:40:43.211Z,5.50
2019-03-29T21:43:10.695Z,6.27
2019-03-29T21:45:38.148Z,5.43
2019-03-29T21:48:27.515Z,5.23
2019-03-29T21:50:33.202Z,5.17
2019-03-29T21:53:00.684Z,5.10
2019-03-29T21:55:28.108Z,4.57
2019-03-29T21:57:55.559Z,4.50
2019-03-29T22:00:23.211Z,4.60
2019-03-29T22:02:50.661Z,4.10
2019-03-29T22:05:18.123Z,4.00
2019-03-29T22:07:45.558Z,4.90
2019-03-29T22:10:13.015Z,3.90
2019-03-29T22:12:43.071Z,4.03
2019-03-29T22:15:07.915Z,3.87
2019-03-29T22:17:35.363Z,3.80
2019-03-29T22:20:03.206Z,3.70
2019-03-29T22:22:30.661Z,4.27
2019-03-29T22:24:58.098Z,3.60
2019-03-29T22:27:25.567Z,4.00
2019-03-29T22:29:53.029Z,4.10
2019-03-29T22:32:20.614Z,4.17
2019-03-29T22:34:48.175Z,3.92
2019-03-29T22:37:15.668Z,3.50
2019-03-29T22:39:43.169Z,3.80
2019-03-29T22:42:10.702Z,3.72
2019-03-29T22:44:38.161Z,3.30
2019-03-29T22:47:06.230Z,3.60
2019-03-29T22:49:33.792Z,3.53
2019-03-29T22:52:01.456Z,3.77
2019-03-29T22:54:29.067Z,3.53
2019-03-29T22:56:56.795Z,3.90
2019-03-29T22:59:24.235Z,3.70
2019-03-29T23:01:51.667Z,3.83
2019-03-29T23:04:19.222Z,4.13
2019-03-29T23:06:46.724Z,3.90
2019-03-29T23:09:14.171Z,3.50
2019-03-29T23:11:41.676Z,3.93
2019-03-29T23:14:09.157Z,3.78
2019-03-29T23:16:36.621Z,3.90
2019-03-29T23:19:06.665Z,3.70
2019-03-29T23:21:32.216Z,3.87
2019-03-29T23:23:59.845Z,3.50
2019-03-29T23:26:27.350Z,3.70
2019-03-29T23:28:54.771Z,3.57
2019-03-29T23:31:22.238Z,3.70
2019-03-29T23:33:49.679Z,4.30
2019-03-29T23:36:17.137Z,3.80
2019-03-29T23:38:44.652Z,4.47
2019-03-29T23:41:12.190Z,4.53
2019-03-29T23:43:39.691Z,4.30
2019-03-29T23:46:07.160Z,4.23
2019-03-29T23:48:35.693Z,4.32
2019-03-29T23:51:03.199Z,4.13
2019-03-29T23:53:30.770Z,4.10
2019-03-29T23:55:58.366Z,4.20
2019-03-29T23:58:25.802Z,4.50
